Weather at Fort McKavett Airport [CLOSED]

Public forecast

Using degrees Fahrenheit for public forecast. Weather courtesy of forecast.io.

Closest aviation weather report (METAR) to Fort McKavett Airport

Closest report is Kimble County Airport, 27.3 nm (50.5 km) SE. Retrieved 2022/01/27 07:51 UTC (25 minutes ago):

KJCT 270751Z AUTO 00000KT 8SM OVC016 07/03 A3025 RMK AO2 SLP233 T00670033

Closest aviation forecast (TAF) to Fort McKavett Airport

Closest forecast is Kimble County Airport, 27.3 nm (50.5 km) SE. Retrieved 2022/01/27 06:22 UTC (2 hours ago):

TAF KJCT 270520Z 2706/2806 VRB03KT P6SM BKN015 FM271800 21006KT P6SM BKN050